sensor_id;sensor_type;location;lat;lon;timestamp;pressure;altitude;pressure_sealevel;temperature;humidity
39405;BME280;25121;51.090;17.038;2022-12-05T00:00:14;100368.19;;;3.80;78.04
39405;BME280;25121;51.090;17.038;2022-12-05T00:01:38;100372.41;;;3.82;77.99
39405;BME280;25121;51.090;17.038;2022-12-05T00:03:03;100373.28;;;3.83;78.07
39405;BME280;25121;51.090;17.038;2022-12-05T00:04:25;100374.97;;;3.84;77.94
39405;BME280;25121;51.090;17.038;2022-12-05T00:05:47;100366.00;;;3.85;77.91
39405;BME280;25121;51.090;17.038;2022-12-05T00:07:11;100365.06;;;3.86;77.91
39405;BME280;25121;51.090;17.038;2022-12-05T00:08:33;100362.38;;;3.86;77.85
39405;BME280;25121;51.090;17.038;2022-12-05T00:09:54;100356.09;;;3.87;77.74
39405;BME280;25121;51.090;17.038;2022-12-05T00:11:17;100359.59;;;3.87;77.88
39405;BME280;25121;51.090;17.038;2022-12-05T00:12:40;100363.22;;;3.86;77.90
39405;BME280;25121;51.090;17.038;2022-12-05T00:14:03;100361.28;;;3.88;78.08
39405;BME280;25121;51.090;17.038;2022-12-05T00:15:24;100353.44;;;3.87;77.94
39405;BME280;25121;51.090;17.038;2022-12-05T00:16:46;100358.75;;;3.87;77.90
39405;BME280;25121;51.090;17.038;2022-12-05T00:18:08;100357.81;;;3.88;77.89
39405;BME280;25121;51.090;17.038;2022-12-05T00:19:29;100356.94;;;3.87;77.72
39405;BME280;25121;51.090;17.038;2022-12-05T00:20:51;100355.13;;;3.88;77.70
39405;BME280;25121;51.090;17.038;2022-12-05T00:22:14;100356.09;;;3.87;77.78
39405;BME280;25121;51.090;17.038;2022-12-05T00:23:36;100349.81;;;3.88;77.81
39405;BME280;25121;51.090;17.038;2022-12-05T00:24:57;100353.31;;;3.88;77.85
39405;BME280;25121;51.090;17.038;2022-12-05T00:26:19;100347.03;;;3.89;77.94
39405;BME280;25121;51.090;17.038;2022-12-05T00:27:40;100350.66;;;3.88;77.66
39405;BME280;25121;51.090;17.038;2022-12-05T00:29:02;100346.28;;;3.87;77.79
39405;BME280;25121;51.090;17.038;2022-12-05T00:30:26;100346.28;;;3.87;77.73
39405;BME280;25121;51.090;17.038;2022-12-05T00:31:48;100346.44;;;3.86;77.81
39405;BME280;25121;51.090;17.038;2022-12-05T00:33:10;100338.72;;;3.83;77.70
39405;BME280;25121;51.090;17.038;2022-12-05T00:34:31;100338.72;;;3.83;77.67
39405;BME280;25121;51.090;17.038;2022-12-05T00:35:54;100343.16;;;3.82;77.73
39405;BME280;25121;51.090;17.038;2022-12-05T00:37:18;100340.66;;;3.81;77.88
39405;BME280;25121;51.090;17.038;2022-12-05T00:38:43;100343.31;;;3.81;77.88
39405;BME280;25121;51.090;17.038;2022-12-05T00:40:06;100344.41;;;3.78;77.74
39405;BME280;25121;51.090;17.038;2022-12-05T00:41:29;100345.38;;;3.77;77.91
39405;BME280;25121;51.090;17.038;2022-12-05T00:42:50;100351.56;;;3.78;77.99
39405;BME280;25121;51.090;17.038;2022-12-05T00:44:14;100351.66;;;3.76;78.14
39405;BME280;25121;51.090;17.038;2022-12-05T00:45:35;100361.47;;;3.76;78.09
39405;BME280;25121;51.090;17.038;2022-12-05T00:46:58;100360.63;;;3.75;78.15
39405;BME280;25121;51.090;17.038;2022-12-05T00:48:19;100358.81;;;3.76;78.14
39405;BME280;25121;51.090;17.038;2022-12-05T00:49:41;100359.75;;;3.75;78.26
39405;BME280;25121;51.090;17.038;2022-12-05T00:51:05;100368.44;;;3.77;78.26
39405;BME280;25121;51.090;17.038;2022-12-05T00:52:30;100356.88;;;3.78;78.19
39405;BME280;25121;51.090;17.038;2022-12-05T00:53:52;100357.69;;;3.78;78.39
39405;BME280;25121;51.090;17.038;2022-12-05T00:55:13;100361.94;;;3.81;78.34
39405;BME280;25121;51.090;17.038;2022-12-05T00:56:34;100363.03;;;3.78;78.18
39405;BME280;25121;51.090;17.038;2022-12-05T00:57:55;100354.06;;;3.79;78.27
39405;BME280;25121;51.090;17.038;2022-12-05T00:59:18;100363.03;;;3.78;78.06
39405;BME280;25121;51.090;17.038;2022-12-05T01:00:40;100350.56;;;3.79;78.21
39405;BME280;25121;51.090;17.038;2022-12-05T01:02:01;100358.53;;;3.79;78.22
39405;BME280;25121;51.090;17.038;2022-12-05T01:03:23;100359.63;;;3.76;78.26
39405;BME280;25121;51.090;17.038;2022-12-05T01:04:44;100356.97;;;3.76;78.16
39405;BME280;25121;51.090;17.038;2022-12-05T01:06:07;100349.97;;;3.75;78.21
39405;BME280;25121;51.090;17.038;2022-12-05T01:07:33;100363.97;;;3.77;78.39
39405;BME280;25121;51.090;17.038;2022-12-05T01:08:54;100344.53;;;3.77;78.46
39405;BME280;25121;51.090;17.038;2022-12-05T01:10:17;100354.22;;;3.78;78.30
39405;BME280;25121;51.090;17.038;2022-12-05T01:11:42;100351.56;;;3.78;78.46
39405;BME280;25121;51.090;17.038;2022-12-05T01:13:03;100351.56;;;3.78;78.43
39405;BME280;25121;51.090;17.038;2022-12-05T01:14:26;100347.19;;;3.77;78.44
39405;BME280;25121;51.090;17.038;2022-12-05T01:15:48;100347.91;;;3.79;78.43
39405;BME280;25121;51.090;17.038;2022-12-05T01:17:09;100351.28;;;3.81;78.53
39405;BME280;25121;51.090;17.038;2022-12-05T01:18:32;100357.44;;;3.81;78.36
39405;BME280;25121;51.090;17.038;2022-12-05T01:19:52;100350.19;;;3.83;78.41
39405;BME280;25121;51.090;17.038;2022-12-05T01:21:15;100358.16;;;3.83;78.47
39405;BME280;25121;51.090;17.038;2022-12-05T01:22:38;100365.88;;;3.86;78.32
39405;BME280;25121;51.090;17.038;2022-12-05T01:24:00;100364.91;;;3.87;78.37
39405;BME280;25121;51.090;17.038;2022-12-05T01:25:21;100356.94;;;3.87;78.45
39405;BME280;25121;51.090;17.038;2022-12-05T01:26:43;100360.56;;;3.86;78.23
39405;BME280;25121;51.090;17.038;2022-12-05T01:28:04;100349.09;;;3.86;78.25
39405;BME280;25121;51.090;17.038;2022-12-05T01:29:26;100350.66;;;3.88;78.20
39405;BME280;25121;51.090;17.038;2022-12-05T01:30:49;100342.69;;;3.88;77.99
39405;BME280;25121;51.090;17.038;2022-12-05T01:32:10;100340.97;;;3.87;78.04
39405;BME280;25121;51.090;17.038;2022-12-05T01:33:33;100348.84;;;3.89;78.17
39405;BME280;25121;51.090;17.038;2022-12-05T01:34:54;100330.34;;;3.87;78.10
39405;BME280;25121;51.090;17.038;2022-12-05T01:36:15;100341.25;;;3.84;78.20
39405;BME280;25121;51.090;17.038;2022-12-05T01:37:38;100336.75;;;3.85;77.99
39405;BME280;25121;51.090;17.038;2022-12-05T01:39:01;100323.47;;;3.85;78.15
39405;BME280;25121;51.090;17.038;2022-12-05T01:40:31;100336.91;;;3.83;78.19
39405;BME280;25121;51.090;17.038;2022-12-05T01:41:55;100335.34;;;3.81;78.06
39405;BME280;25121;51.090;17.038;2022-12-05T01:43:18;100343.31;;;3.81;78.15
39405;BME280;25121;51.090;17.038;2022-12-05T01:46:20;100325.91;;;3.77;77.99
39405;BME280;25121;51.090;17.038;2022-12-05T01:47:44;100336.44;;;3.78;78.17
39405;BME280;25121;51.090;17.038;2022-12-05T01:49:10;100332.22;;;3.76;78.12
39405;BME280;25121;51.090;17.038;2022-12-05T01:50:33;100341.03;;;3.76;78.19
39405;BME280;25121;51.090;17.038;2022-12-05T01:51:57;100336.69;;;3.75;78.46
39405;BME280;25121;51.090;17.038;2022-12-05T01:53:22;100335.72;;;3.76;78.56
39405;BME280;25121;51.090;17.038;2022-12-05T01:54:45;100330.41;;;3.76;78.39
39405;BME280;25121;51.090;17.038;2022-12-05T01:56:08;100341.88;;;3.77;78.40
39405;BME280;25121;51.090;17.038;2022-12-05T01:57:31;100339.22;;;3.77;78.44
39405;BME280;25121;51.090;17.038;2022-12-05T01:58:53;100337.53;;;3.76;78.23
39405;BME280;25121;51.090;17.038;2022-12-05T02:00:18;100335.72;;;3.76;78.40
39405;BME280;25121;51.090;17.038;2022-12-05T02:01:40;100336.56;;;3.77;78.44
39405;BME280;25121;51.090;17.038;2022-12-05T02:03:05;100337.38;;;3.77;78.50
39405;BME280;25121;51.090;17.038;2022-12-05T02:04:28;100332.78;;;3.79;78.41
39405;BME280;25121;51.090;17.038;2022-12-05T02:05:51;100341.50;;;3.81;78.59
39405;BME280;25121;51.090;17.038;2022-12-05T02:07:14;100347.53;;;3.83;78.42
39405;BME280;25121;51.090;17.038;2022-12-05T02:08:37;100335.91;;;3.84;78.49
39405;BME280;25121;51.090;17.038;2022-12-05T02:10:00;100342.94;;;3.85;78.29
39405;BME280;25121;51.090;17.038;2022-12-05T02:11:22;100331.31;;;3.86;78.01
39405;BME280;25121;51.090;17.038;2022-12-05T02:12:45;100328.56;;;3.88;78.20
39405;BME280;25121;51.090;17.038;2022-12-05T02:14:21;100325.75;;;3.89;78.34
39405;BME280;25121;51.090;17.038;2022-12-05T02:15:49;100324.78;;;3.91;77.84
39405;BME280;25121;51.090;17.038;2022-12-05T02:17:24;100323.81;;;3.92;78.12
39405;BME280;25121;51.090;17.038;2022-12-05T02:18:58;100325.53;;;3.93;77.99
39405;BME280;25121;51.090;17.038;2022-12-05T02:20:32;100323.97;;;3.90;77.83
39405;BME280;25121;51.090;17.038;2022-12-05T02:24:21;100322.38;;;3.87;77.82
39405;BME280;25121;51.090;17.038;2022-12-05T02:28:20;100315.38;;;3.86;77.77
39405;BME280;25121;51.090;17.038;2022-12-05T02:29:58;100319.84;;;3.86;77.82
39405;BME280;25121;51.090;17.038;2022-12-05T02:31:26;100321.78;;;3.84;77.76
39405;BME280;25121;51.090;17.038;2022-12-05T02:33:02;100322.63;;;3.84;77.64
39405;BME280;25121;51.090;17.038;2022-12-05T02:34:32;100323.63;;;3.83;77.66
39405;BME280;25121;51.090;17.038;2022-12-05T02:36:01;100317.47;;;3.83;77.71
39405;BME280;25121;51.090;17.038;2022-12-05T02:37:28;100311.41;;;3.81;77.78
39405;BME280;25121;51.090;17.038;2022-12-05T02:38:52;100319.25;;;3.82;77.78
39405;BME280;25121;51.090;17.038;2022-12-05T02:40:24;100316.59;;;3.82;77.78
39405;BME280;25121;51.090;17.038;2022-12-05T02:41:51;100319.25;;;3.82;77.90
39405;BME280;25121;51.090;17.038;2022-12-05T02:43:18;100316.59;;;3.82;77.83
39405;BME280;25121;51.090;17.038;2022-12-05T02:44:45;100314.91;;;3.81;77.62
39405;BME280;25121;51.090;17.038;2022-12-05T02:46:13;100318.41;;;3.82;77.55
39405;BME280;25121;51.090;17.038;2022-12-05T02:47:39;100313.94;;;3.82;77.75
39405;BME280;25121;51.090;17.038;2022-12-05T02:49:08;100318.56;;;3.80;77.66
39405;BME280;25121;51.090;17.038;2022-12-05T02:50:33;100321.22;;;3.80;77.53
39405;BME280;25121;51.090;17.038;2022-12-05T02:51:59;100317.69;;;3.80;77.57
39405;BME280;25121;51.090;17.038;2022-12-05T02:53:27;100317.00;;;3.78;77.63
39405;BME280;25121;51.090;17.038;2022-12-05T02:54:52;100314.34;;;3.78;77.64
39405;BME280;25121;51.090;17.038;2022-12-05T02:56:16;100307.19;;;3.78;77.74
39405;BME280;25121;51.090;17.038;2022-12-05T02:57:42;100319.50;;;3.79;77.67
39405;BME280;25121;51.090;17.038;2022-12-05T02:59:06;100318.66;;;3.79;77.71
39405;BME280;25121;51.090;17.038;2022-12-05T03:00:29;100323.16;;;3.78;77.66
39405;BME280;25121;51.090;17.038;2022-12-05T03:01:53;100319.66;;;3.78;77.71
39405;BME280;25121;51.090;17.038;2022-12-05T03:03:17;100323.97;;;3.79;77.46
39405;BME280;25121;51.090;17.038;2022-12-05T03:04:39;100316.84;;;3.79;77.65
39405;BME280;25121;51.090;17.038;2022-12-05T03:06:01;100321.44;;;3.77;77.55
39405;BME280;25121;51.090;17.038;2022-12-05T03:07:25;100316.84;;;3.79;77.61
39405;BME280;25121;51.090;17.038;2022-12-05T03:08:53;100319.38;;;3.81;77.63
39405;BME280;25121;51.090;17.038;2022-12-05T03:10:19;100317.56;;;3.81;77.50
39405;BME280;25121;51.090;17.038;2022-12-05T03:11:46;100313.09;;;3.82;77.49
39405;BME280;25121;51.090;17.038;2022-12-05T03:13:12;100313.94;;;3.82;77.57
39405;BME280;25121;51.090;17.038;2022-12-05T03:14:40;100312.13;;;3.83;77.45
39405;BME280;25121;51.090;17.038;2022-12-05T03:16:11;100315.63;;;3.83;77.36
39405;BME280;25121;51.090;17.038;2022-12-05T03:17:52;100308.59;;;3.82;77.37
39405;BME280;25121;51.090;17.038;2022-12-05T03:19:19;100312.00;;;3.84;77.16
39405;BME280;25121;51.090;17.038;2022-12-05T03:20:44;100312.00;;;3.84;77.25
39405;BME280;25121;51.090;17.038;2022-12-05T03:22:10;100309.34;;;3.84;77.27
39405;BME280;25121;51.090;17.038;2022-12-05T03:23:40;100306.69;;;3.84;77.17
39405;BME280;25121;51.090;17.038;2022-12-05T03:25:03;100308.59;;;3.82;77.01
39405;BME280;25121;51.090;17.038;2022-12-05T03:26:36;100304.28;;;3.81;77.03
39405;BME280;25121;51.090;17.038;2022-12-05T03:27:58;100303.56;;;3.79;76.98
39405;BME280;25121;51.090;17.038;2022-12-05T03:29:27;100301.88;;;3.78;76.97
39405;BME280;25121;51.090;17.038;2022-12-05T03:30:52;100299.34;;;3.77;76.91
39405;BME280;25121;51.090;17.038;2022-12-05T03:32:20;100302.00;;;3.77;76.96
39405;BME280;25121;51.090;17.038;2022-12-05T03:33:46;100294.16;;;3.75;76.91
39405;BME280;25121;51.090;17.038;2022-12-05T03:35:13;100297.78;;;3.74;76.91
39405;BME280;25121;51.090;17.038;2022-12-05T03:36:43;100305.03;;;3.72;77.05
39405;BME280;25121;51.090;17.038;2022-12-05T03:38:08;100301.53;;;3.72;76.95
39405;BME280;25121;51.090;17.038;2022-12-05T03:39:35;100302.50;;;3.71;77.01
39405;BME280;25121;51.090;17.038;2022-12-05T03:41:07;100299.00;;;3.70;77.07
39405;BME280;25121;51.090;17.038;2022-12-05T03:42:33;100296.22;;;3.72;77.15
39405;BME280;25121;51.090;17.038;2022-12-05T03:43:57;100292.72;;;3.71;76.95
39405;BME280;25121;51.090;17.038;2022-12-05T03:45:26;100294.53;;;3.71;77.12
39405;BME280;25121;51.090;17.038;2022-12-05T03:46:53;100296.31;;;3.70;76.92
39405;BME280;25121;51.090;17.038;2022-12-05T03:48:25;100289.34;;;3.69;76.92
39405;BME280;25121;51.090;17.038;2022-12-05T03:49:55;100292.97;;;3.68;76.54
39405;BME280;25121;51.090;17.038;2022-12-05T03:51:20;100291.28;;;3.67;76.83
39405;BME280;25121;51.090;17.038;2022-12-05T03:52:46;100279.06;;;3.64;76.95
39405;BME280;25121;51.090;17.038;2022-12-05T03:54:35;100287.88;;;3.65;76.81
39405;BME280;25121;51.090;17.038;2022-12-05T03:56:04;100279.91;;;3.65;76.84
39405;BME280;25121;51.090;17.038;2022-12-05T03:57:34;100279.22;;;3.63;76.75
39405;BME280;25121;51.090;17.038;2022-12-05T03:59:04;100285.50;;;3.62;76.80
39405;BME280;25121;51.090;17.038;2022-12-05T04:00:32;100286.47;;;3.61;76.77
39405;BME280;25121;51.090;17.038;2022-12-05T04:01:57;100286.47;;;3.61;76.99
39405;BME280;25121;51.090;17.038;2022-12-05T04:03:27;100295.41;;;3.60;76.77
39405;BME280;25121;51.090;17.038;2022-12-05T04:05:05;100298.06;;;3.60;76.82
39405;BME280;25121;51.090;17.038;2022-12-05T04:06:32;100286.59;;;3.59;76.89
39405;BME280;25121;51.090;17.038;2022-12-05T04:07:57;100297.09;;;3.61;76.95
39405;BME280;25121;51.090;17.038;2022-12-05T04:09:23;100294.44;;;3.61;76.95
39405;BME280;25121;51.090;17.038;2022-12-05T04:10:49;100297.94;;;3.61;76.93
39405;BME280;25121;51.090;17.038;2022-12-05T04:12:20;100282.97;;;3.60;76.75
39405;BME280;25121;51.090;17.038;2022-12-05T04:13:52;100286.47;;;3.61;76.88
39405;BME280;25121;51.090;17.038;2022-12-05T04:15:19;100289.97;;;3.61;76.89
39405;BME280;25121;51.090;17.038;2022-12-05T04:16:46;100290.94;;;3.60;76.66
39405;BME280;25121;51.090;17.038;2022-12-05T04:18:27;100292.75;;;3.60;76.59
39405;BME280;25121;51.090;17.038;2022-12-05T04:19:52;100288.41;;;3.59;76.60
39405;BME280;25121;51.090;17.038;2022-12-05T04:21:43;100292.06;;;3.58;76.55
39405;BME280;25121;51.090;17.038;2022-12-05T04:23:06;100281.41;;;3.58;76.70
39405;BME280;25121;51.090;17.038;2022-12-05T04:24:30;100293.84;;;3.57;76.60
39405;BME280;25121;51.090;17.038;2022-12-05T04:26:17;100286.97;;;3.55;76.52
39405;BME280;25121;51.090;17.038;2022-12-05T04:27:49;100298.47;;;3.55;76.51
39405;BME280;25121;51.090;17.038;2022-12-05T04:29:18;100297.59;;;3.55;76.70
39405;BME280;25121;51.090;17.038;2022-12-05T04:30:47;100299.53;;;3.53;76.74
39405;BME280;25121;51.090;17.038;2022-12-05T04:32:12;100293.38;;;3.52;76.57
39405;BME280;25121;51.090;17.038;2022-12-05T04:33:39;100300.50;;;3.52;76.77
39405;BME280;25121;51.090;17.038;2022-12-05T04:35:08;100290.00;;;3.50;76.67
39405;BME280;25121;51.090;17.038;2022-12-05T04:36:34;100293.63;;;3.49;76.65
39405;BME280;25121;51.090;17.038;2022-12-05T04:38:02;100296.41;;;3.48;76.72
39405;BME280;25121;51.090;17.038;2022-12-05T04:39:30;100292.78;;;3.49;76.80
39405;BME280;25121;51.090;17.038;2022-12-05T04:40:57;100291.09;;;3.48;76.68
39405;BME280;25121;51.090;17.038;2022-12-05T04:42:25;100287.47;;;3.49;76.92
39405;BME280;25121;51.090;17.038;2022-12-05T04:43:49;100290.84;;;3.51;76.75
39405;BME280;25121;51.090;17.038;2022-12-05T04:45:15;100294.47;;;3.50;76.84
39405;BME280;25121;51.090;17.038;2022-12-05T04:46:39;100290.00;;;3.50;76.70
39405;BME280;25121;51.090;17.038;2022-12-05T04:48:06;100299.78;;;3.50;76.75
39405;BME280;25121;51.090;17.038;2022-12-05T04:49:31;100296.16;;;3.51;76.64
39405;BME280;25121;51.090;17.038;2022-12-05T04:50:56;100302.31;;;3.51;76.75
39405;BME280;25121;51.090;17.038;2022-12-05T04:52:19;100297.00;;;3.51;76.67
39405;BME280;25121;51.090;17.038;2022-12-05T04:53:44;100295.19;;;3.52;76.52
39405;BME280;25121;51.090;17.038;2022-12-05T04:55:08;100305.81;;;3.52;76.69
39405;BME280;25121;51.090;17.038;2022-12-05T04:56:33;100301.50;;;3.51;76.53
39405;BME280;25121;51.090;17.038;2022-12-05T04:58:02;100298.81;;;3.51;76.71
39405;BME280;25121;51.090;17.038;2022-12-05T04:59:25;100307.63;;;3.51;76.72
39405;BME280;25121;51.090;17.038;2022-12-05T05:00:52;100310.16;;;3.53;76.63
39405;BME280;25121;51.090;17.038;2022-12-05T05:02:19;100311.03;;;3.53;76.74
39405;BME280;25121;51.090;17.038;2022-12-05T05:03:45;100312.59;;;3.56;76.91
39405;BME280;25121;51.090;17.038;2022-12-05T05:05:13;100311.59;;;3.57;76.77
39405;BME280;25121;51.090;17.038;2022-12-05T05:06:36;100312.22;;;3.60;76.59
39405;BME280;25121;51.090;17.038;2022-12-05T05:07:58;100319.19;;;3.61;76.61
39405;BME280;25121;51.090;17.038;2022-12-05T05:09:22;100318.09;;;3.64;76.66
39405;BME280;25121;51.090;17.038;2022-12-05T05:10:51;100317.00;;;3.66;76.94
39405;BME280;25121;51.090;17.038;2022-12-05T05:12:16;100312.53;;;3.67;76.40
39405;BME280;25121;51.090;17.038;2022-12-05T05:13:39;100299.13;;;3.69;76.30
39405;BME280;25121;51.090;17.038;2022-12-05T05:15:00;100294.66;;;3.69;76.40
39405;BME280;25121;51.090;17.038;2022-12-05T05:16:24;100290.06;;;3.71;76.41
39405;BME280;25121;51.090;17.038;2022-12-05T05:17:46;100296.09;;;3.73;76.52
39405;BME280;25121;51.090;17.038;2022-12-05T05:19:09;100300.44;;;3.74;76.40
39405;BME280;25121;51.090;17.038;2022-12-05T05:20:31;100296.94;;;3.74;76.49
39405;BME280;25121;51.090;17.038;2022-12-05T05:21:52;100309.03;;;3.78;76.21
39405;BME280;25121;51.090;17.038;2022-12-05T05:23:14;100302.00;;;3.77;76.31
39405;BME280;25121;51.090;17.038;2022-12-05T05:24:36;100307.19;;;3.78;76.15
39405;BME280;25121;51.090;17.038;2022-12-05T05:25:58;100312.38;;;3.80;75.94
39405;BME280;25121;51.090;17.038;2022-12-05T05:27:20;100313.09;;;3.82;76.10
39405;BME280;25121;51.090;17.038;2022-12-05T05:28:41;100310.31;;;3.83;76.10
39405;BME280;25121;51.090;17.038;2022-12-05T05:30:05;100313.69;;;3.85;76.07
39405;BME280;25121;51.090;17.038;2022-12-05T05:31:27;100315.25;;;3.88;75.98
39405;BME280;25121;51.090;17.038;2022-12-05T05:32:48;100314.28;;;3.89;76.16
39405;BME280;25121;51.090;17.038;2022-12-05T05:34:11;100316.81;;;3.91;76.02
39405;BME280;25121;51.090;17.038;2022-12-05T05:35:34;100315.00;;;3.91;75.91
39405;BME280;25121;51.090;17.038;2022-12-05T05:36:57;100322.00;;;3.92;75.82
39405;BME280;25121;51.090;17.038;2022-12-05T05:38:19;100318.38;;;3.93;75.68
39405;BME280;25121;51.090;17.038;2022-12-05T05:39:42;100327.06;;;3.95;75.77
39405;BME280;25121;51.090;17.038;2022-12-05T05:41:05;100316.44;;;3.95;75.63
39405;BME280;25121;51.090;17.038;2022-12-05T05:42:26;100311.97;;;3.96;75.55
39405;BME280;25121;51.090;17.038;2022-12-05T05:43:50;100315.47;;;3.96;75.53
39405;BME280;25121;51.090;17.038;2022-12-05T05:45:14;100318.13;;;3.96;75.30
39405;BME280;25121;51.090;17.038;2022-12-05T05:46:36;100312.06;;;3.94;75.39
39405;BME280;25121;51.090;17.038;2022-12-05T05:47:58;100319.94;;;3.96;75.24
39405;BME280;25121;51.090;17.038;2022-12-05T05:49:21;100308.59;;;3.94;75.30
39405;BME280;25121;51.090;17.038;2022-12-05T05:50:43;100317.28;;;3.96;75.40
39405;BME280;25121;51.090;17.038;2022-12-05T05:52:06;100320.06;;;3.94;75.36
39405;BME280;25121;51.090;17.038;2022-12-05T05:53:31;100319.34;;;3.92;75.13
39405;BME280;25121;51.090;17.038;2022-12-05T05:54:54;100319.47;;;3.91;75.06
39405;BME280;25121;51.090;17.038;2022-12-05T05:56:18;100320.56;;;3.88;74.70
39405;BME280;25121;51.090;17.038;2022-12-05T05:57:41;100325.16;;;3.86;75.03
39405;BME280;25121;51.090;17.038;2022-12-05T05:59:04;100324.34;;;3.85;75.12
39405;BME280;25121;51.090;17.038;2022-12-05T06:00:25;100320.81;;;3.85;75.21
39405;BME280;25121;51.090;17.038;2022-12-05T06:01:48;100314.66;;;3.84;75.28
39405;BME280;25121;51.090;17.038;2022-12-05T06:03:10;100314.66;;;3.84;75.14
39405;BME280;25121;51.090;17.038;2022-12-05T06:04:35;100312.00;;;3.84;75.02
39405;BME280;25121;51.090;17.038;2022-12-05T06:05:56;100314.66;;;3.84;75.04
39405;BME280;25121;51.090;17.038;2022-12-05T06:07:18;100310.31;;;3.83;75.16
39405;BME280;25121;51.090;17.038;2022-12-05T06:08:42;100312.13;;;3.83;75.09
39405;BME280;25121;51.090;17.038;2022-12-05T06:10:07;100315.75;;;3.82;75.13
39405;BME280;25121;51.090;17.038;2022-12-05T06:11:32;100318.41;;;3.82;75.27
39405;BME280;25121;51.090;17.038;2022-12-05T06:13:05;100319.38;;;3.81;75.24
39405;BME280;25121;51.090;17.038;2022-12-05T06:14:33;100317.56;;;3.81;75.22
39405;BME280;25121;51.090;17.038;2022-12-05T06:16:00;100313.22;;;3.80;75.19
39405;BME280;25121;51.090;17.038;2022-12-05T06:17:37;100311.53;;;3.79;75.15
39405;BME280;25121;51.090;17.038;2022-12-05T06:19:17;100314.34;;;3.78;75.17
39405;BME280;25121;51.090;17.038;2022-12-05T06:20:39;100326.75;;;3.77;75.17
39405;BME280;25121;51.090;17.038;2022-12-05T06:22:01;100324.97;;;3.78;75.08
39405;BME280;25121;51.090;17.038;2022-12-05T06:23:26;100316.13;;;3.77;75.18
39405;BME280;25121;51.090;17.038;2022-12-05T06:24:48;100314.44;;;3.76;75.02
39405;BME280;25121;51.090;17.038;2022-12-05T06:26:13;100328.72;;;3.75;75.20
39405;BME280;25121;51.090;17.038;2022-12-05T06:27:36;100316.53;;;3.73;75.11
39405;BME280;25121;51.090;17.038;2022-12-05T06:28:58;100309.38;;;3.73;75.27
39405;BME280;25121;51.090;17.038;2022-12-05T06:30:20;100318.31;;;3.72;75.16
39405;BME280;25121;51.090;17.038;2022-12-05T06:31:45;100316.63;;;3.71;75.15
39405;BME280;25121;51.090;17.038;2022-12-05T06:33:08;100320.25;;;3.70;75.28
39405;BME280;25121;51.090;17.038;2022-12-05T06:34:30;100327.38;;;3.70;75.21
39405;BME280;25121;51.090;17.038;2022-12-05T06:36:01;100318.69;;;3.67;75.21
39405;BME280;25121;51.090;17.038;2022-12-05T06:37:24;100314.34;;;3.66;75.10
39405;BME280;25121;51.090;17.038;2022-12-05T06:38:46;100318.00;;;3.65;75.28
39405;BME280;25121;51.090;17.038;2022-12-05T06:40:11;100316.28;;;3.64;75.31
39405;BME280;25121;51.090;17.038;2022-12-05T06:41:37;100318.94;;;3.64;75.33
39405;BME280;25121;51.090;17.038;2022-12-05T06:42:59;100318.09;;;3.64;75.30
39405;BME280;25121;51.090;17.038;2022-12-05T06:44:21;100314.47;;;3.65;75.28
39405;BME280;25121;51.090;17.038;2022-12-05T06:45:48;100317.13;;;3.65;75.42
39405;BME280;25121;51.090;17.038;2022-12-05T06:47:11;100310.25;;;3.62;75.42
39405;BME280;25121;51.090;17.038;2022-12-05T06:48:33;100314.47;;;3.65;75.37
39405;BME280;25121;51.090;17.038;2022-12-05T06:49:54;100314.34;;;3.66;75.44
39405;BME280;25121;51.090;17.038;2022-12-05T06:51:19;100308.94;;;3.68;75.38
39405;BME280;25121;51.090;17.038;2022-12-05T06:52:41;100310.59;;;3.69;75.73
39405;BME280;25121;51.090;17.038;2022-12-05T06:54:03;100317.13;;;3.65;75.23
39405;BME280;25121;51.090;17.038;2022-12-05T06:55:26;100320.50;;;3.67;75.31
39405;BME280;25121;51.090;17.038;2022-12-05T06:56:49;100308.19;;;3.66;75.35
39405;BME280;25121;51.090;17.038;2022-12-05T06:58:12;100298.28;;;3.68;75.40
39405;BME280;25121;51.090;17.038;2022-12-05T06:59:32;100302.63;;;3.69;75.41
39405;BME280;25121;51.090;17.038;2022-12-05T07:00:55;100296.31;;;3.70;75.48
39405;BME280;25121;51.090;17.038;2022-12-05T07:02:34;100292.72;;;3.71;75.47
39405;BME280;25121;51.090;17.038;2022-12-05T07:03:56;100295.25;;;3.73;75.45
39405;BME280;25121;51.090;17.038;2022-12-05T07:05:22;100293.28;;;3.75;75.37
39405;BME280;25121;51.090;17.038;2022-12-05T07:06:45;100292.47;;;3.74;75.18
39405;BME280;25121;51.090;17.038;2022-12-05T07:08:10;100295.97;;;3.75;75.17
39405;BME280;25121;51.090;17.038;2022-12-05T07:09:31;100294.16;;;3.75;75.39
39405;BME280;25121;51.090;17.038;2022-12-05T07:11:13;100302.00;;;3.77;75.19
39405;BME280;25121;51.090;17.038;2022-12-05T07:12:37;100305.50;;;3.77;75.14
39405;BME280;25121;51.090;17.038;2022-12-05T07:14:00;100312.50;;;3.78;75.07
39405;BME280;25121;51.090;17.038;2022-12-05T07:15:38;100304.66;;;3.77;75.01
39405;BME280;25121;51.090;17.038;2022-12-05T07:17:00;100302.84;;;3.77;75.01
39405;BME280;25121;51.090;17.038;2022-12-05T07:18:22;100300.16;;;3.77;75.10
39405;BME280;25121;51.090;17.038;2022-12-05T07:19:46;100302.84;;;3.77;75.13
39405;BME280;25121;51.090;17.038;2022-12-05T07:21:12;100306.34;;;3.78;75.07
39405;BME280;25121;51.090;17.038;2022-12-05T07:22:36;100317.00;;;3.78;74.95
39405;BME280;25121;51.090;17.038;2022-12-05T07:23:58;100308.16;;;3.77;75.01
39405;BME280;25121;51.090;17.038;2022-12-05T07:25:20;100307.06;;;3.80;75.03
39405;BME280;25121;51.090;17.038;2022-12-05T07:26:42;100302.72;;;3.79;75.17
39405;BME280;25121;51.090;17.038;2022-12-05T07:28:06;100307.91;;;3.80;74.92
39405;BME280;25121;51.090;17.038;2022-12-05T07:29:28;100319.25;;;3.82;74.97
39405;BME280;25121;51.090;17.038;2022-12-05T07:30:58;100312.25;;;3.81;74.83